createdAt,value
2022-08-17T00:00:07.022Z,26.51
2022-08-17T00:01:10.897Z,26.50
2022-08-17T00:02:25.587Z,26.51
2022-08-17T00:03:17.567Z,26.52
2022-08-17T00:04:19.564Z,26.52
2022-08-17T00:05:21.462Z,26.51
2022-08-17T00:06:23.616Z,26.51
2022-08-17T00:07:25.485Z,26.52
2022-08-17T00:08:27.375Z,26.51
2022-08-17T00:09:29.209Z,26.51
2022-08-17T00:10:32.488Z,26.52
2022-08-17T00:11:34.424Z,26.51
2022-08-17T00:12:43.465Z,26.50
2022-08-17T00:13:39.993Z,26.52
2022-08-17T00:14:41.838Z,26.51
2022-08-17T00:15:43.662Z,26.50
2022-08-17T00:16:55.348Z,26.50
2022-08-17T00:17:49.385Z,26.51
2022-08-17T00:19:06.413Z,26.51
2022-08-17T00:19:54.927Z,26.51
2022-08-17T00:20:56.860Z,26.50
2022-08-17T00:22:31.288Z,26.50
2022-08-17T00:23:02.353Z,26.51
2022-08-17T00:24:04.311Z,26.51
2022-08-17T00:25:06.154Z,26.51
2022-08-17T00:26:08.713Z,26.51
2022-08-17T00:27:10.561Z,26.51
2022-08-17T00:28:12.395Z,26.52
2022-08-17T00:29:19.521Z,26.51
2022-08-17T00:30:18.663Z,26.52
2022-08-17T00:31:20.504Z,26.51
2022-08-17T00:33:13.920Z,26.51
2022-08-17T00:33:26.343Z,26.51
2022-08-17T00:34:28.414Z,26.50
2022-08-17T00:35:32.072Z,26.51
2022-08-17T00:36:34.234Z,26.52
2022-08-17T00:37:36.067Z,26.51
2022-08-17T00:38:37.940Z,26.51
2022-08-17T00:39:39.874Z,26.52
2022-08-17T00:40:44.893Z,26.50
2022-08-17T00:41:46.221Z,26.50
2022-08-17T00:42:48.135Z,26.50
2022-08-17T00:43:50.129Z,26.49
2022-08-17T00:44:51.990Z,26.50
2022-08-17T00:45:53.829Z,26.49
2022-08-17T00:46:55.912Z,26.49
2022-08-17T00:47:57.761Z,26.48
2022-08-17T00:48:59.614Z,26.48
2022-08-17T00:50:01.481Z,26.48
2022-08-17T00:51:03.340Z,26.48
2022-08-17T00:52:05.213Z,26.47
2022-08-17T00:53:08.860Z,26.47
2022-08-17T00:54:10.683Z,26.47
2022-08-17T00:55:12.899Z,26.46
2022-08-17T00:56:15.156Z,26.46
2022-08-17T00:57:16.990Z,26.46
2022-08-17T00:58:18.870Z,26.45
2022-08-17T00:59:22.517Z,26.44
2022-08-17T01:00:26.196Z,26.44
2022-08-17T01:01:28.504Z,26.44
2022-08-17T01:02:30.399Z,26.44
2022-08-17T01:03:34.160Z,26.43
2022-08-17T01:04:36.036Z,26.43
2022-08-17T01:05:37.908Z,26.43
2022-08-17T01:06:41.664Z,26.43
2022-08-17T01:07:43.588Z,26.42
2022-08-17T01:08:45.471Z,26.40
2022-08-17T01:09:47.344Z,26.40
2022-08-17T01:10:57.375Z,26.40
2022-08-17T01:11:53.181Z,26.39
2022-08-17T01:12:55.020Z,26.39
2022-08-17T01:13:56.860Z,26.39
2022-08-17T01:14:58.696Z,26.37
2022-08-17T01:16:00.582Z,26.37
2022-08-17T01:17:02.430Z,26.35
2022-08-17T01:18:04.261Z,26.34
2022-08-17T01:19:06.097Z,26.33
2022-08-17T01:20:08.208Z,26.33
2022-08-17T01:21:10.097Z,26.32
2022-08-17T01:22:11.934Z,26.32
2022-08-17T01:23:20.451Z,26.31
2022-08-17T01:24:17.524Z,26.30
2022-08-17T01:25:19.360Z,26.30
2022-08-17T01:26:22.559Z,26.29
2022-08-17T01:27:24.403Z,26.29
2022-08-17T01:28:40.711Z,26.28
2022-08-17T01:29:29.889Z,26.28
2022-08-17T01:30:58.722Z,26.28
2022-08-17T01:31:36.140Z,26.28
2022-08-17T01:32:37.984Z,26.28
2022-08-17T01:33:39.813Z,26.28
2022-08-17T01:34:43.497Z,26.27
2022-08-17T01:35:45.612Z,26.26
2022-08-17T01:36:47.602Z,26.25
2022-08-17T01:37:49.441Z,26.25
2022-08-17T01:38:51.282Z,26.25
2022-08-17T01:39:53.211Z,26.24
2022-08-17T01:40:57.064Z,26.23
2022-08-17T01:41:58.846Z,26.24
2022-08-17T01:43:00.680Z,26.23
2022-08-17T01:44:02.527Z,26.22
2022-08-17T01:45:04.376Z,26.22
2022-08-17T01:46:06.314Z,26.21
2022-08-17T01:47:08.185Z,26.21
2022-08-17T01:48:10.051Z,26.19
2022-08-17T01:49:11.890Z,26.20
2022-08-17T01:50:15.250Z,26.18
2022-08-17T01:51:17.161Z,26.20
2022-08-17T01:52:19.025Z,26.18
2022-08-17T01:53:20.869Z,26.17
2022-08-17T01:54:22.716Z,26.17
2022-08-17T01:55:27.355Z,26.17
2022-08-17T01:56:28.507Z,26.18
2022-08-17T01:57:30.286Z,26.16
2022-08-17T01:58:32.121Z,26.16
2022-08-17T01:59:33.969Z,26.16
2022-08-17T02:00:47.254Z,26.16
2022-08-17T02:01:40.104Z,26.15
2022-08-17T02:02:41.938Z,26.15
2022-08-17T02:03:56.170Z,26.13
2022-08-17T02:04:47.423Z,26.14
2022-08-17T02:05:49.240Z,26.14
2022-08-17T02:06:53.265Z,26.13
2022-08-17T02:08:00.267Z,26.12
2022-08-17T02:09:02.672Z,26.11
2022-08-17T02:10:02.315Z,26.10
2022-08-17T02:11:04.142Z,26.10
2022-08-17T02:12:39.105Z,26.08
2022-08-17T02:13:11.497Z,26.09
2022-08-17T02:14:13.307Z,26.08
2022-08-17T02:15:15.149Z,26.06
2022-08-17T02:16:20.145Z,26.05
2022-08-17T02:17:21.972Z,26.05
2022-08-17T02:18:23.831Z,26.04
2022-08-17T02:19:25.676Z,26.04
2022-08-17T02:20:42.018Z,26.01
2022-08-17T02:21:31.568Z,26.02
2022-08-17T02:22:33.423Z,26.01
2022-08-17T02:23:35.306Z,25.99
2022-08-17T02:25:00.928Z,26.00
2022-08-17T02:25:40.769Z,25.98
2022-08-17T02:26:42.914Z,25.99
2022-08-17T02:27:44.748Z,25.98
2022-08-17T02:28:46.618Z,25.98
2022-08-17T02:29:48.444Z,25.96
2022-08-17T02:31:01.127Z,25.95
2022-08-17T02:31:54.035Z,25.95
2022-08-17T02:32:55.862Z,25.95
2022-08-17T02:34:03.452Z,25.94
2022-08-17T02:35:02.563Z,25.94
2022-08-17T02:36:04.501Z,25.94
2022-08-17T02:37:06.360Z,25.93
2022-08-17T02:38:08.255Z,25.93
2022-08-17T02:39:10.146Z,25.92
2022-08-17T02:40:12.354Z,25.92
2022-08-17T02:41:15.005Z,25.91
2022-08-17T02:42:16.875Z,25.91
2022-08-17T02:43:18.730Z,25.91
2022-08-17T02:44:39.332Z,25.89
2022-08-17T02:45:24.318Z,25.89
2022-08-17T02:46:26.280Z,25.89
2022-08-17T02:47:28.128Z,25.89
2022-08-17T02:48:31.611Z,25.88
2022-08-17T02:49:33.664Z,25.88
2022-08-17T02:50:35.631Z,25.87
2022-08-17T02:51:37.457Z,25.87
2022-08-17T02:52:42.753Z,25.86
2022-08-17T02:53:42.995Z,25.86
2022-08-17T02:54:44.890Z,25.86
2022-08-17T02:55:46.710Z,25.85
2022-08-17T02:56:48.688Z,25.86
2022-08-17T02:57:50.541Z,25.85
2022-08-17T02:58:52.366Z,25.84
2022-08-17T02:59:54.245Z,25.83
2022-08-17T03:00:56.197Z,25.83
2022-08-17T03:01:59.114Z,25.83
2022-08-17T03:03:00.999Z,25.83
2022-08-17T03:04:02.852Z,25.82
2022-08-17T03:05:04.704Z,25.83
2022-08-17T03:06:06.741Z,25.82
2022-08-17T03:07:08.587Z,25.82
2022-08-17T03:08:13.184Z,25.82
2022-08-17T03:09:14.132Z,25.81
2022-08-17T03:10:16.128Z,25.82
2022-08-17T03:11:17.995Z,25.82
2022-08-17T03:12:19.850Z,25.82
2022-08-17T03:13:21.703Z,25.81
2022-08-17T03:14:26.272Z,25.80
2022-08-17T03:15:27.295Z,25.81
2022-08-17T03:16:29.664Z,25.81
2022-08-17T03:17:31.814Z,25.82
2022-08-17T03:18:33.671Z,25.82
2022-08-17T03:19:35.544Z,25.78
2022-08-17T03:20:39.328Z,25.83
2022-08-17T03:21:41.456Z,25.83
2022-08-17T03:22:48.119Z,25.84
2022-08-17T03:23:48.978Z,25.84
2022-08-17T03:24:52.738Z,25.85
2022-08-17T03:25:55.217Z,25.85
2022-08-17T03:26:57.605Z,25.87
2022-08-17T03:27:59.443Z,25.86
2022-08-17T03:29:01.275Z,25.87
2022-08-17T03:30:03.210Z,25.87
2022-08-17T03:31:05.086Z,25.87
2022-08-17T03:32:06.945Z,25.88
2022-08-17T03:33:08.777Z,25.89
2022-08-17T03:34:10.611Z,25.89
2022-08-17T03:35:12.489Z,25.89
2022-08-17T03:36:16.571Z,25.91
2022-08-17T03:37:18.435Z,25.91
2022-08-17T03:38:20.306Z,25.92
2022-08-17T03:39:23.172Z,25.93
2022-08-17T03:40:34.401Z,25.94
2022-08-17T03:41:30.469Z,25.97
2022-08-17T03:42:32.959Z,25.97
2022-08-17T03:43:34.895Z,25.97
2022-08-17T03:44:36.769Z,25.99
2022-08-17T03:45:38.616Z,25.99
2022-08-17T03:46:40.822Z,26.01
2022-08-17T03:47:42.703Z,26.02
2022-08-17T03:48:45.376Z,26.03
2022-08-17T03:49:47.199Z,26.05
2022-08-17T03:50:49.140Z,26.06
2022-08-17T03:51:51.028Z,26.08
2022-08-17T03:52:52.869Z,26.08
2022-08-17T03:53:54.738Z,26.10
2022-08-17T03:54:56.608Z,26.10
2022-08-17T03:55:58.446Z,26.12
2022-08-17T03:57:00.443Z,26.13
2022-08-17T03:58:02.516Z,26.15
2022-08-17T03:59:04.347Z,26.16
2022-08-17T04:00:07.094Z,26.17
2022-08-17T04:01:08.973Z,26.18
2022-08-17T04:02:11.012Z,26.20
2022-08-17T04:03:12.963Z,26.20
2022-08-17T04:04:14.797Z,26.22
2022-08-17T04:05:16.645Z,26.24
2022-08-17T04:06:20.289Z,26.25
2022-08-17T04:07:22.155Z,26.26
2022-08-17T04:08:23.984Z,26.28
2022-08-17T04:09:25.858Z,26.30
2022-08-17T04:10:27.892Z,26.31
2022-08-17T04:11:31.612Z,26.33
2022-08-17T04:12:33.494Z,26.34
2022-08-17T04:13:35.380Z,26.37
2022-08-17T04:14:51.811Z,26.38
2022-08-17T04:15:40.926Z,26.39
2022-08-17T04:16:42.790Z,26.41
2022-08-17T04:17:44.659Z,26.42
2022-08-17T04:18:46.534Z,26.44
2022-08-17T04:19:48.392Z,26.46
2022-08-17T04:20:50.373Z,26.47
2022-08-17T04:21:52.244Z,26.49
2022-08-17T04:22:54.437Z,26.50
2022-08-17T04:23:57.721Z,26.52
2022-08-17T04:24:59.593Z,26.55
2022-08-17T04:26:01.440Z,26.56
2022-08-17T04:27:03.294Z,26.58
2022-08-17T04:28:05.207Z,26.59
2022-08-17T04:29:08.895Z,26.60
2022-08-17T04:30:11.365Z,26.62
2022-08-17T04:31:13.237Z,26.64
2022-08-17T04:32:15.094Z,26.65
2022-08-17T04:33:17.266Z,26.66
2022-08-17T04:34:19.869Z,26.67
2022-08-17T04:35:21.893Z,26.69
2022-08-17T04:36:25.530Z,26.72
2022-08-17T04:37:27.397Z,26.73
2022-08-17T04:38:29.250Z,26.75
2022-08-17T04:39:33.757Z,26.77
2022-08-17T04:40:34.838Z,26.78
2022-08-17T04:41:36.670Z,26.79
2022-08-17T04:42:38.579Z,26.81
2022-08-17T04:43:40.444Z,26.83
2022-08-17T04:44:42.302Z,26.84
2022-08-17T04:45:55.303Z,26.86
2022-08-17T04:46:47.909Z,26.87
2022-08-17T04:47:49.779Z,26.90
2022-08-17T04:48:51.684Z,26.91
2022-08-17T04:49:53.548Z,26.94
2022-08-17T04:50:55.676Z,26.95
2022-08-17T04:52:01.224Z,26.96
2022-08-17T04:53:01.512Z,26.97
2022-08-17T04:54:03.576Z,26.99
2022-08-17T04:55:05.440Z,27.00
2022-08-17T04:56:08.018Z,27.01
2022-08-17T04:57:11.682Z,27.04
2022-08-17T04:58:13.633Z,27.06
2022-08-17T04:59:15.508Z,27.07
2022-08-17T05:00:19.114Z,27.09
2022-08-17T05:01:23.589Z,27.10
2022-08-17T05:02:24.596Z,27.12
2022-08-17T05:03:26.417Z,27.13
2022-08-17T05:04:34.060Z,27.16
2022-08-17T05:05:31.961Z,27.17
2022-08-17T05:06:34.515Z,27.18
2022-08-17T05:07:36.359Z,27.20
2022-08-17T05:08:38.197Z,27.21
2022-08-17T05:09:40.070Z,27.23
2022-08-17T05:10:45.278Z,27.24
2022-08-17T05:11:45.693Z,27.26
2022-08-17T05:12:47.562Z,27.27
2022-08-17T05:13:49.461Z,27.29
2022-08-17T05:14:51.362Z,27.30
2022-08-17T05:15:53.224Z,27.31
2022-08-17T05:16:55.186Z,27.33
2022-08-17T05:17:57.021Z,27.34
2022-08-17T05:18:58.866Z,27.36
2022-08-17T05:20:00.765Z,27.38
2022-08-17T05:21:02.615Z,27.40
2022-08-17T05:22:04.497Z,27.40
2022-08-17T05:23:06.356Z,27.43
2022-08-17T05:24:17.658Z,27.44
2022-08-17T05:25:11.939Z,27.45
2022-08-17T05:26:26.256Z,27.49
2022-08-17T05:27:19.482Z,27.49
2022-08-17T05:28:27.342Z,27.52
2022-08-17T05:29:35.277Z,27.52
2022-08-17T05:30:30.022Z,27.54
2022-08-17T05:31:31.903Z,27.55
2022-08-17T05:32:39.145Z,27.57
2022-08-17T05:33:39.586Z,27.57
2022-08-17T05:34:41.041Z,27.59
2022-08-17T05:35:42.947Z,27.60
2022-08-17T05:36:44.906Z,27.61
2022-08-17T05:37:46.743Z,27.62
2022-08-17T05:38:48.607Z,27.62
2022-08-17T05:39:50.461Z,27.63
2022-08-17T05:40:52.441Z,27.63
2022-08-17T05:41:54.304Z,27.64
2022-08-17T05:42:56.159Z,27.65
2022-08-17T05:43:58.009Z,27.65
2022-08-17T05:44:59.903Z,27.65
2022-08-17T05:46:01.889Z,27.66
2022-08-17T05:47:03.738Z,27.67
2022-08-17T05:48:05.607Z,27.67
2022-08-17T05:49:07.432Z,27.69
2022-08-17T05:50:10.168Z,27.69
2022-08-17T05:51:12.140Z,27.69
2022-08-17T05:52:14.015Z,27.70
2022-08-17T05:53:17.648Z,27.70
2022-08-17T05:54:19.487Z,27.71
2022-08-17T05:55:21.361Z,27.72
2022-08-17T05:56:30.432Z,27.73
2022-08-17T05:57:27.416Z,27.73
2022-08-17T05:58:29.156Z,27.74
2022-08-17T05:59:31.013Z,27.74
2022-08-17T06:00:33.186Z,27.75
2022-08-17T06:01:35.824Z,27.75
2022-08-17T06:02:37.844Z,27.76
2022-08-17T06:03:40.259Z,27.77
2022-08-17T06:04:42.695Z,27.77
2022-08-17T06:05:44.615Z,27.79
2022-08-17T06:06:46.644Z,27.80
2022-08-17T06:07:48.502Z,27.79
2022-08-17T06:08:51.526Z,27.79
2022-08-17T06:09:53.746Z,27.81
2022-08-17T06:10:55.672Z,27.82
2022-08-17T06:11:58.938Z,27.82
2022-08-17T06:13:00.758Z,27.82
2022-08-17T06:14:02.625Z,27.83
2022-08-17T06:15:04.476Z,27.84
2022-08-17T06:16:28.144Z,27.85
2022-08-17T06:17:10.194Z,27.86
2022-08-17T06:18:15.909Z,27.87
2022-08-17T06:19:15.681Z,27.88
2022-08-17T06:20:19.327Z,27.89
2022-08-17T06:21:21.171Z,27.91
2022-08-17T06:22:24.866Z,27.91
2022-08-17T06:23:26.698Z,27.91
2022-08-17T06:24:28.530Z,27.91
2022-08-17T06:25:30.345Z,27.91
2022-08-17T06:26:38.503Z,27.92
2022-08-17T06:27:35.973Z,27.93
2022-08-17T06:28:37.803Z,27.95
2022-08-17T06:29:39.661Z,27.97
2022-08-17T06:31:00.239Z,27.97
2022-08-17T06:31:45.304Z,27.96
2022-08-17T06:32:47.264Z,27.97
2022-08-17T06:33:49.142Z,27.99
2022-08-17T06:34:50.991Z,27.99
2022-08-17T06:35:52.820Z,28.01
2022-08-17T06:36:54.973Z,28.02
2022-08-17T06:37:57.360Z,28.02
2022-08-17T06:38:59.229Z,28.03
2022-08-17T06:40:01.167Z,28.04
2022-08-17T06:41:03.061Z,28.05
2022-08-17T06:42:04.895Z,28.05
2022-08-17T06:43:07.505Z,28.06
2022-08-17T06:44:09.467Z,28.08
2022-08-17T06:45:11.322Z,28.08
2022-08-17T06:46:13.692Z,28.09
2022-08-17T06:47:15.619Z,28.10
2022-08-17T06:48:19.293Z,28.11
2022-08-17T06:49:21.133Z,28.12
2022-08-17T06:50:23.470Z,28.12
2022-08-17T06:51:25.321Z,28.13
2022-08-17T06:52:45.915Z,28.13
2022-08-17T06:53:30.884Z,28.14
2022-08-17T06:54:32.719Z,28.15
2022-08-17T06:55:38.150Z,28.15
2022-08-17T06:56:53.568Z,28.17
2022-08-17T06:57:41.983Z,28.18
2022-08-17T06:58:43.877Z,28.19
2022-08-17T06:59:55.515Z,28.20
2022-08-17T07:00:49.802Z,28.21
2022-08-17T07:01:51.583Z,28.21
2022-08-17T07:02:55.324Z,28.22
2022-08-17T07:03:57.222Z,28.24
2022-08-17T07:04:59.094Z,28.24
2022-08-17T07:06:00.917Z,28.25
2022-08-17T07:07:02.749Z,28.25
2022-08-17T07:08:04.638Z,28.25
2022-08-17T07:09:06.490Z,28.26
2022-08-17T07:10:08.635Z,28.28
2022-08-17T07:11:10.508Z,28.28
2022-08-17T07:12:12.348Z,28.30
2022-08-17T07:13:14.205Z,28.29
2022-08-17T07:14:17.459Z,28.31
2022-08-17T07:15:19.461Z,28.32
2022-08-17T07:16:22.038Z,28.34
2022-08-17T07:17:46.461Z,28.35
2022-08-17T07:18:27.583Z,28.35
2022-08-17T07:19:29.459Z,28.37
2022-08-17T07:20:31.387Z,28.40
2022-08-17T07:21:33.219Z,28.39
2022-08-17T07:22:53.525Z,28.41
2022-08-17T07:23:38.721Z,28.41
2022-08-17T07:24:40.601Z,28.41
2022-08-17T07:25:42.436Z,28.45
2022-08-17T07:26:44.361Z,28.46
2022-08-17T07:27:46.216Z,28.49
2022-08-17T07:28:48.279Z,28.50
2022-08-17T07:29:50.206Z,28.50
2022-08-17T07:30:52.189Z,28.51
2022-08-17T07:31:54.054Z,28.53
2022-08-17T07:32:57.555Z,28.54
2022-08-17T07:34:00.032Z,28.56
2022-08-17T07:35:01.931Z,28.58
2022-08-17T07:36:04.070Z,28.58
2022-08-17T07:37:05.904Z,28.61
2022-08-17T07:38:25.682Z,28.63
2022-08-17T07:39:11.423Z,28.65
2022-08-17T07:40:15.122Z,28.68
2022-08-17T07:41:17.299Z,28.70
2022-08-17T07:42:19.358Z,28.72
2022-08-17T07:43:21.926Z,28.75
2022-08-17T07:44:24.996Z,28.76
2022-08-17T07:45:26.870Z,28.79
2022-08-17T07:46:29.155Z,28.81
2022-08-17T07:47:31.030Z,28.83
2022-08-17T07:48:32.914Z,28.86
2022-08-17T07:49:34.863Z,28.88
2022-08-17T07:50:36.962Z,28.89
2022-08-17T07:51:39.034Z,28.93
2022-08-17T07:52:50.733Z,28.94
2022-08-17T07:53:44.540Z,28.95
2022-08-17T07:54:46.431Z,28.96
2022-08-17T07:55:48.333Z,29.01
2022-08-17T07:56:50.287Z,28.99
2022-08-17T07:57:52.249Z,29.02
2022-08-17T07:58:54.245Z,29.04
2022-08-17T07:59:56.113Z,29.05
2022-08-17T08:00:58.241Z,29.06
2022-08-17T08:02:00.079Z,29.08
2022-08-17T08:03:02.004Z,29.09
2022-08-17T08:04:03.891Z,29.10
2022-08-17T08:05:08.890Z,29.11
2022-08-17T08:06:11.739Z,29.13
2022-08-17T08:07:13.599Z,29.14
2022-08-17T08:08:15.449Z,29.14
2022-08-17T08:09:18.090Z,29.16
2022-08-17T08:10:20.234Z,29.16
2022-08-17T08:11:22.103Z,29.18
2022-08-17T08:12:23.963Z,29.17
2022-08-17T08:13:27.638Z,29.19
2022-08-17T08:14:29.540Z,29.21
2022-08-17T08:15:32.956Z,29.21
2022-08-17T08:16:34.860Z,29.22
2022-08-17T08:17:36.707Z,29.24
2022-08-17T08:18:54.209Z,29.25
2022-08-17T08:19:42.241Z,29.26
2022-08-17T08:20:53.157Z,29.28
2022-08-17T08:21:47.920Z,29.29
2022-08-17T08:22:49.854Z,29.33
2022-08-17T08:23:52.002Z,29.33
2022-08-17T08:24:53.893Z,29.37
2022-08-17T08:25:55.742Z,29.38
2022-08-17T08:26:58.218Z,29.39
2022-08-17T08:28:00.100Z,29.41
2022-08-17T08:29:01.958Z,29.41
2022-08-17T08:30:03.913Z,29.43
2022-08-17T08:31:05.751Z,29.44
2022-08-17T08:32:07.684Z,29.45
2022-08-17T08:33:09.558Z,29.45
2022-08-17T08:34:53.207Z,29.47
2022-08-17T08:35:15.054Z,29.47
2022-08-17T08:37:14.226Z,29.48
2022-08-17T08:37:32.599Z,29.49
2022-08-17T08:38:24.902Z,29.51
2022-08-17T08:39:27.236Z,29.51
2022-08-17T08:40:29.248Z,29.52
2022-08-17T08:41:31.111Z,29.52
2022-08-17T08:42:32.988Z,29.53
2022-08-17T08:43:34.892Z,29.55
2022-08-17T08:44:59.822Z,29.56
2022-08-17T08:45:40.413Z,29.55
2022-08-17T08:46:42.372Z,29.58
2022-08-17T08:47:44.301Z,29.59
2022-08-17T08:48:56.921Z,29.60
2022-08-17T08:50:05.994Z,29.62
2022-08-17T08:50:53.862Z,29.63
2022-08-17T08:51:55.773Z,29.67
2022-08-17T08:52:57.679Z,29.67
2022-08-17T08:53:59.531Z,29.67
2022-08-17T08:55:01.380Z,29.70
2022-08-17T08:56:03.382Z,29.71
2022-08-17T08:58:31.455Z,29.76
2022-08-17T08:59:13.269Z,29.78
2022-08-17T09:00:15.746Z,29.80
2022-08-17T09:01:17.782Z,29.82
2022-08-17T09:02:19.990Z,29.84
2022-08-17T09:03:36.560Z,29.86
2022-08-17T09:04:26.049Z,29.89
2022-08-17T09:05:27.869Z,29.90
2022-08-17T09:06:38.791Z,29.92
2022-08-17T09:07:34.983Z,29.92
2022-08-17T09:08:36.874Z,29.94
2022-08-17T09:09:39.985Z,29.95
2022-08-17T09:10:42.066Z,29.98
2022-08-17T09:12:02.011Z,29.98
2022-08-17T09:12:47.630Z,30.00
2022-08-17T09:13:54.324Z,30.00
2022-08-17T09:14:53.751Z,30.02
2022-08-17T09:15:55.631Z,30.03
2022-08-17T09:16:57.588Z,30.03
2022-08-17T09:19:00.986Z,30.05
2022-08-17T09:19:04.819Z,30.04
2022-08-17T09:20:07.249Z,30.04
2022-08-17T09:21:10.250Z,30.05
2022-08-17T09:22:13.048Z,30.07
2022-08-17T09:23:15.034Z,30.08
2022-08-17T09:24:16.941Z,30.09
2022-08-17T09:25:20.978Z,30.09
2022-08-17T09:26:23.084Z,30.11
2022-08-17T09:27:26.081Z,30.12
2022-08-17T09:28:27.934Z,30.13
2022-08-17T09:29:30.135Z,30.13
2022-08-17T09:30:32.414Z,30.14
2022-08-17T09:31:34.264Z,30.16
2022-08-17T09:32:36.140Z,30.17
2022-08-17T09:33:37.991Z,30.17
2022-08-17T09:34:39.897Z,30.17
2022-08-17T09:35:43.565Z,30.17
2022-08-17T09:36:45.438Z,30.18
2022-08-17T09:37:47.284Z,30.19
2022-08-17T09:38:49.171Z,30.20
2022-08-17T09:39:51.081Z,30.20
2022-08-17T09:40:53.031Z,30.20
2022-08-17T09:41:54.865Z,30.20
2022-08-17T09:42:56.700Z,30.21
2022-08-17T09:43:58.749Z,30.22
2022-08-17T09:45:00.621Z,30.23
2022-08-17T09:46:02.765Z,30.24
2022-08-17T09:47:04.600Z,30.24
2022-08-17T09:48:06.424Z,30.26
2022-08-17T09:49:08.255Z,30.27
2022-08-17T09:50:10.344Z,30.26
2022-08-17T09:51:12.200Z,30.27
2022-08-17T09:52:14.042Z,30.28
2022-08-17T09:53:15.863Z,30.27
2022-08-17T09:54:38.197Z,30.27
2022-08-17T09:55:21.419Z,30.27
2022-08-17T09:56:23.479Z,30.28
2022-08-17T09:57:30.336Z,30.28
2022-08-17T09:58:29.209Z,30.29
2022-08-17T09:59:34.223Z,30.29
2022-08-17T10:00:35.211Z,30.30
2022-08-17T10:01:37.299Z,30.30
2022-08-17T10:02:39.311Z,30.31
2022-08-17T10:03:41.141Z,30.32
2022-08-17T10:04:42.985Z,30.32
2022-08-17T10:05:44.847Z,30.31
2022-08-17T10:06:46.781Z,30.31
2022-08-17T10:07:48.621Z,30.31
2022-08-17T10:08:50.462Z,30.33
2022-08-17T10:09:52.322Z,30.32
2022-08-17T10:10:56.736Z,30.34
2022-08-17T10:11:57.950Z,30.34
2022-08-17T10:12:59.779Z,30.34
2022-08-17T10:14:01.609Z,30.34
2022-08-17T10:15:08.214Z,30.34
2022-08-17T10:16:09.188Z,30.35
2022-08-17T10:17:11.026Z,30.35
2022-08-17T10:18:12.898Z,30.35
2022-08-17T10:19:14.718Z,30.37
2022-08-17T10:20:17.177Z,30.37
2022-08-17T10:21:19.290Z,30.37
2022-08-17T10:22:34.617Z,30.38
2022-08-17T10:23:24.820Z,30.39
2022-08-17T10:24:26.673Z,30.40
2022-08-17T10:25:48.715Z,30.39
2022-08-17T10:26:40.376Z,30.39
2022-08-17T10:27:36.292Z,30.39
2022-08-17T10:28:38.129Z,30.40
2022-08-17T10:29:47.429Z,30.38
2022-08-17T10:30:43.775Z,30.39
2022-08-17T10:31:45.655Z,30.40
2022-08-17T10:32:47.535Z,30.41
2022-08-17T10:33:49.393Z,30.41
2022-08-17T10:34:51.229Z,30.40
2022-08-17T10:35:53.076Z,30.40
2022-08-17T10:36:56.902Z,30.42
2022-08-17T10:37:59.073Z,30.40
2022-08-17T10:39:00.929Z,30.40
2022-08-17T10:40:02.887Z,30.42
2022-08-17T10:41:04.760Z,30.43
2022-08-17T10:42:06.636Z,30.44
2022-08-17T10:43:08.603Z,30.45
2022-08-17T10:44:39.483Z,30.45
2022-08-17T10:45:14.518Z,30.45
2022-08-17T10:46:31.429Z,30.46
2022-08-17T10:47:21.924Z,30.46
2022-08-17T10:48:24.100Z,30.47
2022-08-17T10:49:25.912Z,30.43
2022-08-17T10:50:27.876Z,30.47
2022-08-17T10:51:29.720Z,30.47
2022-08-17T10:52:31.619Z,30.47
2022-08-17T10:53:33.450Z,30.47
2022-08-17T10:54:35.285Z,30.47
2022-08-17T10:55:37.126Z,30.48
2022-08-17T10:56:39.712Z,30.47
2022-08-17T10:57:41.615Z,30.47
2022-08-17T10:58:43.450Z,30.48
2022-08-17T10:59:45.308Z,30.49
2022-08-17T11:00:47.354Z,30.49
2022-08-17T11:01:49.260Z,30.48
2022-08-17T11:02:51.483Z,30.49
2022-08-17T11:03:53.488Z,30.49
2022-08-17T11:04:55.375Z,30.48
2022-08-17T11:05:57.277Z,30.49
2022-08-17T11:06:59.446Z,30.48
2022-08-17T11:08:01.375Z,30.48
2022-08-17T11:09:03.243Z,30.47
2022-08-17T11:10:05.170Z,30.47
2022-08-17T11:11:07.033Z,30.47
2022-08-17T11:12:08.946Z,30.48
2022-08-17T11:13:10.868Z,30.49
2022-08-17T11:14:12.709Z,30.49
2022-08-17T11:15:14.649Z,30.50
2022-08-17T11:16:16.788Z,30.50
2022-08-17T11:17:18.688Z,30.51
2022-08-17T11:18:21.179Z,30.49
2022-08-17T11:19:23.027Z,30.50
2022-08-17T11:20:25.164Z,30.51
2022-08-17T11:21:26.951Z,30.52
2022-08-17T11:22:33.337Z,30.52
2022-08-17T11:23:32.603Z,30.52
2022-08-17T11:24:34.728Z,30.51
2022-08-17T11:25:36.600Z,30.50
2022-08-17T11:26:38.580Z,30.51
2022-08-17T11:27:40.491Z,30.50
2022-08-17T11:28:42.374Z,30.50
2022-08-17T11:29:44.257Z,30.50
2022-08-17T11:30:46.236Z,30.49
2022-08-17T11:31:48.094Z,30.50
2022-08-17T11:32:54.570Z,30.48
2022-08-17T11:33:53.952Z,30.49
2022-08-17T11:34:55.806Z,30.48
2022-08-17T11:35:57.665Z,30.48
2022-08-17T11:37:00.305Z,30.47
2022-08-17T11:38:02.208Z,30.47
2022-08-17T11:39:04.092Z,30.47
2022-08-17T11:40:06.398Z,30.47
2022-08-17T11:41:08.365Z,30.47
2022-08-17T11:42:10.295Z,30.47
2022-08-17T11:43:12.351Z,30.48
2022-08-17T11:44:14.306Z,30.48
2022-08-17T11:45:31.737Z,30.48
2022-08-17T11:46:20.145Z,30.48
2022-08-17T11:47:24.738Z,30.48
2022-08-17T11:48:29.396Z,30.49
2022-08-17T11:49:31.505Z,30.50
2022-08-17T11:50:33.648Z,30.51
2022-08-17T11:51:35.502Z,30.50
2022-08-17T11:52:37.353Z,30.50
2022-08-17T11:53:40.251Z,30.49
2022-08-17T11:54:42.140Z,30.49
2022-08-17T11:55:45.078Z,30.48
2022-08-17T11:56:47.128Z,30.49
2022-08-17T11:57:49.073Z,30.48
2022-08-17T11:58:50.971Z,30.47
2022-08-17T11:59:52.897Z,30.47
2022-08-17T12:00:55.392Z,30.48
2022-08-17T12:01:57.256Z,30.47
2022-08-17T12:02:59.082Z,30.47
2022-08-17T12:04:00.911Z,30.46
2022-08-17T12:05:02.784Z,30.45
2022-08-17T12:06:04.762Z,30.45
2022-08-17T12:07:06.611Z,30.44
2022-08-17T12:08:08.443Z,30.44
2022-08-17T12:09:10.295Z,30.43
2022-08-17T12:10:12.877Z,30.44
2022-08-17T12:11:14.759Z,30.43
2022-08-17T12:12:16.831Z,30.44
2022-08-17T12:13:18.729Z,30.43
2022-08-17T12:14:26.997Z,30.42
2022-08-17T12:15:24.311Z,30.42
2022-08-17T12:16:28.030Z,30.42
2022-08-17T12:17:41.029Z,30.41
2022-08-17T12:18:33.617Z,30.40
2022-08-17T12:19:35.458Z,30.38
2022-08-17T12:20:37.658Z,30.38
2022-08-17T12:21:39.807Z,30.37
2022-08-17T12:22:41.743Z,30.37
2022-08-17T12:23:44.168Z,30.37
2022-08-17T12:24:46.232Z,30.38
2022-08-17T12:25:48.121Z,30.39
2022-08-17T12:26:50.273Z,30.38
2022-08-17T12:28:06.492Z,30.39
2022-08-17T12:28:55.797Z,30.41
2022-08-17T12:29:59.179Z,30.41
2022-08-17T12:31:01.175Z,30.42
2022-08-17T12:32:03.022Z,30.43
2022-08-17T12:33:05.418Z,30.42
2022-08-17T12:34:07.264Z,30.42
2022-08-17T12:35:09.153Z,30.42
2022-08-17T12:36:12.830Z,30.42
2022-08-17T12:37:14.977Z,30.42
2022-08-17T12:38:31.944Z,30.41
2022-08-17T12:39:21.373Z,30.42
2022-08-17T12:40:23.741Z,30.41
2022-08-17T12:41:25.706Z,30.41
2022-08-17T12:42:27.626Z,30.39
2022-08-17T12:43:29.473Z,30.40
2022-08-17T12:44:31.327Z,30.38
2022-08-17T12:45:33.232Z,30.37
2022-08-17T12:46:35.680Z,30.36
2022-08-17T12:47:37.515Z,30.36
2022-08-17T12:48:39.404Z,30.35
2022-08-17T12:49:43.067Z,30.34
2022-08-17T12:50:45.259Z,30.34
2022-08-17T12:51:47.133Z,30.32
2022-08-17T12:52:49.022Z,30.31
2022-08-17T12:53:51.784Z,30.31
2022-08-17T12:54:55.470Z,30.31
2022-08-17T12:55:57.340Z,30.31
2022-08-17T12:56:59.873Z,30.31
2022-08-17T12:58:01.905Z,30.31
2022-08-17T12:59:04.145Z,30.31
2022-08-17T13:00:06.206Z,30.31
2022-08-17T13:01:08.151Z,30.30
2022-08-17T13:02:10.290Z,30.30
2022-08-17T13:03:12.730Z,30.29
2022-08-17T13:04:14.784Z,30.29
2022-08-17T13:05:16.614Z,30.28
2022-08-17T13:06:19.881Z,30.29
2022-08-17T13:07:21.798Z,30.29
2022-08-17T13:08:23.642Z,30.29
2022-08-17T13:09:30.972Z,30.30
2022-08-17T13:10:32.885Z,30.30
2022-08-17T13:11:33.133Z,30.29
2022-08-17T13:12:35.018Z,30.30
2022-08-17T13:13:36.908Z,30.30
2022-08-17T13:14:38.776Z,30.29
2022-08-17T13:15:44.418Z,30.29
2022-08-17T13:16:44.516Z,30.28
2022-08-17T13:17:46.449Z,30.29
2022-08-17T13:18:48.251Z,30.29
2022-08-17T13:19:50.042Z,30.28
2022-08-17T13:20:52.027Z,30.29
2022-08-17T13:21:53.857Z,30.29
2022-08-17T13:22:56.246Z,30.29